Aérodrome :
LOGIN :

S'inscrire | Disclaimer

   EN    FR    IT 

 










Légende :    VFR   VFR Marginal   IFR   IFR Intensif   IFR Très Intensif
Visi : 
Plafond : 
>= 8 km
>= 3000ft
5 à 8 km
1000 à 3000 ft
1500m à 5 km
500 à 1000 ft
800 à 1500m
200 à 500 ft
< 800m
< 200 ft
Symboles :   Orages  Brouillard  Fortes neiges  Fortes précipitations  Vent > 20 kt
SIGMETs :   Divers  Orages  Givrage  Turbulence  Onde Orograph.  Cendres Volcan.






- Altitude de l'aérodrome : 1020 ft
- Code IATA : ILZ


LZZI - Žilina

DERNIER METAR :
  • 291730Z VRB01KT 9999 FEW036 SCT068 14/07 Q1021

METARs EXPIRÉS :
  • 291700Z 36006KT 310V040 9999 SCT035 14/07 Q1021
  • 291630Z 36007KT 320V040 9999 SCT038 14/07 Q1021
  • 291600Z 02006KT 340V060 9999 SCT031 SCT081 14/07 Q1021
  • 291530Z 02006KT 310V070 9999 SCT031 14/07 Q1021
  • 291500Z 04009KT 360V070 9999 SCT028 BKN040 13/08 Q1022

TAF TAF LZZI
Valide du 29 à 18h jusqu'au 30 à 03h UTC


291700Z 2918/3003 02007KT 9999 BKN035



MET'MAP, la Météo Aéronautique d'un coup d'oeil ! - Copyright ORBIFLY Décembre 2007 - Disclaimer

ORBIFLY MET'MAP TEAM :

Programmation & Développement : Alexandra Zaïnal
Sur une idée originale de : Baudouin d'Aumeries
Assistance à la programmation : Marc-Olivier Méhu
Soutien technique & logistique : Manuel Goepfert

Contact : metmap@orbifly.com




SOURCES & CREDITS :

   NOAA